Messwerte Panama-Stadt

Temperatur

Temperatur
°C
1594000800 21.00 21.00 26
1594004400 22.00 22.00 25
1594008000 23.00 23.00 25
1594011600 0.00 0.00 25
1594015200 1.00 1.00 25
1594018800 2.00 2.00
1594022400 3.00 3.00
1594026000 4.00 4.00 24
1594029600 5.00 5.00 24
1594033200 6.00 6.00 24
1594036800 7.00 7.00 25
1594040400 8.00 8.00 27
1594044000 9.00 9.00 29
1594047600 10.00 10.00 29
1594051200 11.00 11.00 29
1594054800 12.00 12.00 28
1594058400 13.00 13.00 29
1594062000 14.00 14.00
1594065600 15.00 15.00 30
1594069200 16.00 16.00 31
1594072800 17.00 17.00 31
1594076400 18.00 18.00 30
1594080000 19.00 19.00 29
1594083600 20.00 20.00 28

Aktuellste Messwerte

Wettercharakter
Wetter: wechselnd bewölkt
Temperatur
28 °C
Feuchtigkeit
80 %
Wind
10 km/hWindrichtung: Nordwest
Luftdruck
1010 hPa
Messzeit: 6. Juli 2020, 20.00Datenquelle: METAR

Weitere Messstationen in der Nähe

Messstation Temperatur Entfernung
Tocumen (Panama) 26 °C 30 km
David - 315 km
Apartado - 341 km
Puerto Limón - 397 km
Montería - 412 km
San Andres 28 °C 469 km
Cartagena de Indias - 479 km

Wind

Windrichtung Böen Mittelwind
° km/h km/h
1594000800 21.00 20.00 - 21.00 310° 5
1594004400 22.00 21.00 - 22.00 5
1594008000 23.00 22.00 - 23.00 5
1594011600 0.00 23.00 - 0.00 300° 5
1594015200 1.00 0.00 - 1.00 5
1594018800 2.00 1.00 - 2.00
1594022400 3.00 2.00 - 3.00
1594026000 4.00 3.00 - 4.00 5
1594029600 5.00 4.00 - 5.00 5
1594033200 6.00 5.00 - 6.00 310° 5
1594036800 7.00 6.00 - 7.00 340° 5
1594040400 8.00 7.00 - 8.00 280° 5
1594044000 9.00 8.00 - 9.00 320° 5
1594047600 10.00 9.00 - 10.00 330° 5
1594051200 11.00 10.00 - 11.00 330° 5
1594054800 12.00 11.00 - 12.00 360° 15
1594058400 13.00 12.00 - 13.00 310° 15
1594062000 14.00 13.00 - 14.00 5
1594065600 15.00 14.00 - 15.00 330° 20
1594069200 16.00 15.00 - 16.00 320° 20
1594072800 17.00 16.00 - 17.00 340° 20
1594076400 18.00 17.00 - 18.00 330° 25
1594080000 19.00 18.00 - 19.00 320° 10
1594083600 20.00 19.00 - 20.00 320° 10

Ihre Wetterstation

Fehlt Ihre Wetterstation auf unserem Portal?

Schreiben Sie an network@meteonews.ch

Klima

Wann ist es am wärmsten? Wann regnet es am wenigsten? Unsere Klimadaten geben Auskunft.